Time;durP1;ratioP1;P1;durP2;ratioP2;P2;SDS_P1;SDS_P2;PMS_P1;PMS_P2;Temp;Humidity;BMP_temperature;BMP_pressure;BME280_temperature;BME280_humidity;BME280_pressure;Samples;Min_cycle;Max_cycle;Signal;HPM_P1;HPM_P2
2022/05/14 00:01:42;;;;;;;6.60;4.83;;;;;;;;;;6334732;22;20427;-93
2022/05/14 00:04:46;;;;;;;6.37;5.87;;;;;;;;;;6333900;22;20489;-93
2022/05/14 00:07:54;;;;;;;7.80;5.80;;;;;;;;;;6334733;22;20486;-94
2022/05/14 00:14:03;;;;;;;5.27;4.93;;;;;;;;;;6332714;22;20418;-94
2022/05/14 00:17:11;;;;;;;6.27;5.67;;;;;;;;;;6333357;22;20371;-94
2022/05/14 00:20:14;;;;;;;5.90;5.70;;;;;;;;;;6333861;22;20362;-94
2022/05/14 00:28:37;;;;;;;7.53;5.93;;;;;;;;;;6281845;22;20442;-92
2022/05/14 00:31:43;;;;;;;5.90;5.50;;;;;;;;;;6331490;22;20370;-93
2022/05/14 00:34:49;;;;;;;6.90;5.90;;;;;;;;;;6333131;22;20360;-94
2022/05/14 00:37:55;;;;;;;9.13;6.17;;;;;;;;;;6333209;22;20384;-91
2022/05/14 00:41:06;;;;;;;5.90;5.60;;;;;;;;;;6333380;22;20394;-94
2022/05/14 00:44:13;;;;;;;7.20;6.10;;;;;;;;;;6333119;22;20521;-91
2022/05/14 00:47:18;;;;;;;6.93;6.17;;;;;;;;;;6333850;22;20443;-92
2022/05/14 00:50:24;;;;;;;8.13;6.70;;;;;;;;;;6333059;22;20392;-94
2022/05/14 00:53:33;;;;;;;6.07;5.87;;;;;;;;;;6332790;22;20388;-94
2022/05/14 00:56:39;;;;;;;8.10;6.00;;;;;;;;;;6332911;22;20388;-92
2022/05/14 00:59:47;;;;;;;6.17;5.83;;;;;;;;;;6333049;22;20410;-94
2022/05/14 01:02:53;;;;;;;7.07;6.70;;;;;;;;;;6332402;22;20399;-94
2022/05/14 01:05:59;;;;;;;7.83;6.60;;;;;;;;;;6333573;22;20663;-93
2022/05/14 01:09:06;;;;;;;6.37;5.77;;;;;;;;;;6333403;22;20399;-94
2022/05/14 01:12:13;;;;;;;8.00;7.20;;;;;;;;;;6333386;22;20383;-94
2022/05/14 01:20:50;;;;;;;6.67;6.10;;;;;;;;;;6302851;22;20454;-92
2022/05/14 01:26:59;;;;;;;7.67;6.97;;;;;;;;;;6328333;22;20370;-90
2022/05/14 01:30:05;;;;;;;6.73;6.27;;;;;;;;;;6306582;22;20418;-92
2022/05/14 01:33:11;;;;;;;7.70;6.80;;;;;;;;;;6304871;22;20379;-90
2022/05/14 01:36:17;;;;;;;6.60;6.17;;;;;;;;;;6312846;22;20376;-89
2022/05/14 01:39:23;;;;;;;7.83;7.10;;;;;;;;;;6310449;22;20407;-89
2022/05/14 01:42:28;;;;;;;7.73;7.17;;;;;;;;;;6306917;22;20376;-90
2022/05/14 01:45:34;;;;;;;7.60;7.17;;;;;;;;;;6305076;22;20431;-91
2022/05/14 01:48:40;;;;;;;10.43;7.43;;;;;;;;;;6305057;22;20378;-91
2022/05/14 01:51:47;;;;;;;8.50;7.90;;;;;;;;;;6307667;22;20402;-91
2022/05/14 01:54:53;;;;;;;8.40;7.70;;;;;;;;;;6303683;22;20383;-90
2022/05/14 01:57:59;;;;;;;11.30;8.17;;;;;;;;;;6305265;22;20383;-91
2022/05/14 02:01:06;;;;;;;8.00;7.40;;;;;;;;;;6306063;22;20383;-90
2022/05/14 02:04:15;;;;;;;6.90;6.30;;;;;;;;;;6312665;22;20407;-91
2022/05/14 02:07:21;;;;;;;7.43;6.60;;;;;;;;;;6306889;22;20390;-91
2022/05/14 02:10:27;;;;;;;8.30;7.50;;;;;;;;;;6304440;22;20375;-91
2022/05/14 02:13:33;;;;;;;6.43;6.03;;;;;;;;;;6305410;22;20399;-91
2022/05/14 02:16:38;;;;;;;7.67;7.10;;;;;;;;;;6305356;22;20364;-91
2022/05/14 02:19:44;;;;;;;9.63;7.33;;;;;;;;;;6302946;22;20419;-91
2022/05/14 02:22:51;;;;;;;7.23;6.30;;;;;;;;;;6304760;22;20379;-91
2022/05/14 02:25:56;;;;;;;7.63;7.13;;;;;;;;;;6302758;22;21014;-92
2022/05/14 02:29:02;;;;;;;7.67;7.10;;;;;;;;;;6302615;22;20401;-90
2022/05/14 02:32:08;;;;;;;7.00;6.40;;;;;;;;;;6305891;22;20438;-92
2022/05/14 02:35:14;;;;;;;8.47;7.27;;;;;;;;;;6302781;22;20525;-92
2022/05/14 02:38:19;;;;;;;11.33;7.87;;;;;;;;;;6305054;22;20442;-92
2022/05/14 02:41:25;;;;;;;6.77;6.43;;;;;;;;;;6304859;22;20371;-93
2022/05/14 02:44:31;;;;;;;8.27;6.70;;;;;;;;;;6302947;22;20492;-91
2022/05/14 02:47:37;;;;;;;9.03;7.80;;;;;;;;;;6304762;22;20455;-91
2022/05/14 02:50:43;;;;;;;7.80;7.17;;;;;;;;;;6315091;22;20789;-92
2022/05/14 02:53:49;;;;;;;8.50;7.90;;;;;;;;;;6314371;22;20407;-91
2022/05/14 02:56:56;;;;;;;7.13;6.57;;;;;;;;;;6307111;22;20380;-91
2022/05/14 03:00:00;;;;;;;8.90;8.10;;;;;;;;;;6305042;22;20387;-92
2022/05/14 03:03:06;;;;;;;8.23;7.40;;;;;;;;;;6307290;22;20387;-92
2022/05/14 03:06:13;;;;;;;6.60;6.30;;;;;;;;;;6306171;22;20828;-92
2022/05/14 03:09:18;;;;;;;7.43;6.67;;;;;;;;;;6304572;22;20435;-93
2022/05/14 03:12:24;;;;;;;9.83;6.80;;;;;;;;;;6305620;22;20466;-92
2022/05/14 03:15:31;;;;;;;7.73;6.73;;;;;;;;;;6304490;22;20479;-92
2022/05/14 03:18:37;;;;;;;6.50;6.00;;;;;;;;;;6303754;22;20391;-92
2022/05/14 03:21:43;;;;;;;6.03;5.47;;;;;;;;;;6305307;22;20404;-91
2022/05/14 03:24:49;;;;;;;6.80;6.10;;;;;;;;;;6301076;22;20426;-92
2022/05/14 03:27:54;;;;;;;6.13;5.70;;;;;;;;;;6305787;22;20387;-91
2022/05/14 03:31:00;;;;;;;4.87;4.70;;;;;;;;;;6304735;22;20383;-92
2022/05/14 03:34:06;;;;;;;5.27;4.83;;;;;;;;;;6305439;22;20411;-90
2022/05/14 03:37:13;;;;;;;6.87;6.23;;;;;;;;;;6308257;22;20426;-92
2022/05/14 03:40:18;;;;;;;4.37;4.17;;;;;;;;;;6305483;22;20721;-92
2022/05/14 03:43:24;;;;;;;7.27;5.00;;;;;;;;;;6307991;22;20836;-91
2022/05/14 03:46:30;;;;;;;4.93;4.53;;;;;;;;;;6307641;22;20432;-92
2022/05/14 03:49:35;;;;;;;6.90;4.57;;;;;;;;;;6306301;22;20726;-92
2022/05/14 03:52:41;;;;;;;5.67;4.60;;;;;;;;;;6306088;22;20758;-92
2022/05/14 03:55:47;;;;;;;4.33;4.13;;;;;;;;;;6304686;22;20384;-92
2022/05/14 03:58:53;;;;;;;8.17;3.40;;;;;;;;;;6306297;22;20405;-92
2022/05/14 04:01:59;;;;;;;4.50;4.13;;;;;;;;;;6309395;22;20430;-91
2022/05/14 04:05:05;;;;;;;5.50;3.77;;;;;;;;;;6307483;22;20431;-91
2022/05/14 04:08:11;;;;;;;12.50;3.50;;;;;;;;;;6306641;22;20457;-91
2022/05/14 04:11:16;;;;;;;7.40;3.87;;;;;;;;;;6307432;22;20379;-93
2022/05/14 04:14:22;;;;;;;4.67;3.83;;;;;;;;;;6305080;22;20383;-92
2022/05/14 04:17:29;;;;;;;3.73;3.43;;;;;;;;;;6306820;22;20386;-92
2022/05/14 04:20:34;;;;;;;3.93;3.63;;;;;;;;;;6302356;22;20423;-90
2022/05/14 04:23:40;;;;;;;3.63;3.33;;;;;;;;;;6303955;22;20394;-91
2022/05/14 04:26:46;;;;;;;4.93;3.33;;;;;;;;;;6304870;22;20395;-91
2022/05/14 04:29:52;;;;;;;4.07;3.77;;;;;;;;;;6306596;22;20422;-92
2022/05/14 04:32:57;;;;;;;6.17;3.77;;;;;;;;;;6304462;22;20454;-90
2022/05/14 04:36:03;;;;;;;2.80;2.67;;;;;;;;;;6302404;22;20384;-89
2022/05/14 04:39:09;;;;;;;3.63;3.33;;;;;;;;;;6309524;22;20474;-91
2022/05/14 04:42:15;;;;;;;5.20;3.30;;;;;;;;;;6308207;22;20442;-89
2022/05/14 04:45:21;;;;;;;4.17;3.60;;;;;;;;;;6305613;22;20773;-90
2022/05/14 04:48:27;;;;;;;3.53;3.07;;;;;;;;;;6305531;22;21147;-90
2022/05/14 04:51:33;;;;;;;2.90;2.73;;;;;;;;;;6301396;22;20413;-91
2022/05/14 04:54:38;;;;;;;2.90;2.70;;;;;;;;;;6303393;22;20391;-89
2022/05/14 04:57:49;;;;;;;3.50;3.30;;;;;;;;;;6300717;22;20415;-92
2022/05/14 05:00:54;;;;;;;2.60;2.50;;;;;;;;;;6302684;22;20392;-88
2022/05/14 05:04:00;;;;;;;4.10;3.20;;;;;;;;;;6311001;22;20475;-89
2022/05/14 05:07:06;;;;;;;2.57;2.43;;;;;;;;;;6308885;22;20409;-91
2022/05/14 05:10:12;;;;;;;3.20;2.90;;;;;;;;;;6311014;22;20421;-90
2022/05/14 05:13:18;;;;;;;3.20;2.47;;;;;;;;;;6311238;22;20399;-86
2022/05/14 05:16:24;;;;;;;3.83;3.70;;;;;;;;;;6326623;22;20391;-90
2022/05/14 05:19:30;;;;;;;3.27;3.00;;;;;;;;;;6318256;22;20485;-89
2022/05/14 05:22:37;;;;;;;4.77;2.77;;;;;;;;;;6309963;22;20406;-91
2022/05/14 05:25:41;;;;;;;2.97;2.90;;;;;;;;;;6310260;22;20429;-91
2022/05/14 05:28:47;;;;;;;4.20;3.67;;;;;;;;;;6331096;22;20679;-92
2022/05/14 05:31:53;;;;;;;4.27;2.90;;;;;;;;;;6329500;22;20398;-90
2022/05/14 05:34:59;;;;;;;3.40;3.17;;;;;;;;;;6331971;22;20392;-91
2022/05/14 05:38:05;;;;;;;4.23;3.93;;;;;;;;;;6317903;22;20376;-91
2022/05/14 05:41:11;;;;;;;3.30;3.17;;;;;;;;;;6320703;22;20650;-92
2022/05/14 05:44:17;;;;;;;5.87;3.87;;;;;;;;;;6321307;22;20949;-89
2022/05/14 05:47:26;;;;;;;6.30;3.00;;;;;;;;;;6315041;22;20405;-90
2022/05/14 05:50:32;;;;;;;3.87;2.63;;;;;;;;;;6312903;22;20443;-88
2022/05/14 05:56:59;;;;;;;4.80;3.77;;;;;;;;;;6305632;22;20390;-92
2022/05/14 06:00:04;;;;;;;3.80;3.50;;;;;;;;;;6306516;22;20468;-92
2022/05/14 06:03:09;;;;;;;3.93;3.23;;;;;;;;;;6307125;22;20384;-91
2022/05/14 06:06:15;;;;;;;3.10;2.90;;;;;;;;;;6305158;22;20559;-91
2022/05/14 06:09:21;;;;;;;3.80;3.00;;;;;;;;;;6307167;22;20391;-91
2022/05/14 06:12:27;;;;;;;6.20;3.97;;;;;;;;;;6305528;22;20721;-91
2022/05/14 06:15:33;;;;;;;3.13;2.87;;;;;;;;;;6305882;22;20379;-90
2022/05/14 06:18:38;;;;;;;3.90;3.53;;;;;;;;;;6305345;22;20379;-90
2022/05/14 06:21:44;;;;;;;5.13;3.20;;;;;;;;;;6303730;22;20478;-91
2022/05/14 06:24:50;;;;;;;9.93;3.30;;;;;;;;;;6299959;22;20423;-91
2022/05/14 06:27:56;;;;;;;5.83;3.67;;;;;;;;;;6306403;22;20384;-88
2022/05/14 06:31:03;;;;;;;3.80;3.50;;;;;;;;;;6306983;22;20387;-90
2022/05/14 06:34:09;;;;;;;3.47;3.20;;;;;;;;;;6308840;22;20379;-90
2022/05/14 06:37:18;;;;;;;3.57;3.27;;;;;;;;;;6317834;22;20387;-93
2022/05/14 06:40:24;;;;;;;3.43;3.23;;;;;;;;;;6325291;22;20371;-90
2022/05/14 06:43:30;;;;;;;3.90;3.00;;;;;;;;;;6324179;22;20867;-90
2022/05/14 06:46:36;;;;;;;2.87;2.67;;;;;;;;;;6314454;22;20391;-92
2022/05/14 06:49:41;;;;;;;3.43;3.23;;;;;;;;;;6321673;22;20547;-90
2022/05/14 06:52:50;;;;;;;2.73;2.53;;;;;;;;;;6320148;22;20693;-91
2022/05/14 06:55:54;;;;;;;5.57;4.07;;;;;;;;;;6311307;22;20387;-90
2022/05/14 06:59:02;;;;;;;4.37;3.70;;;;;;;;;;6312382;22;20386;-92
2022/05/14 07:02:08;;;;;;;3.80;3.60;;;;;;;;;;6310488;22;20395;-91
2022/05/14 07:08:21;;;;;;;6.27;4.17;;;;;;;;;;6309331;22;20394;-92
2022/05/14 07:11:29;;;;;;;7.43;4.43;;;;;;;;;;6309341;22;20379;-91
2022/05/14 07:14:33;;;;;;;6.33;4.40;;;;;;;;;;6310314;22;20394;-92
2022/05/14 07:17:45;;;;;;;11.00;6.80;;;;;;;;;;6309611;22;20406;-93
2022/05/14 07:20:51;;;;;;;7.50;4.67;;;;;;;;;;6310047;22;20510;-91
2022/05/14 07:23:57;;;;;;;6.50;4.40;;;;;;;;;;6306541;22;20397;-93
2022/05/14 07:27:10;;;;;;;4.67;4.23;;;;;;;;;;6304726;22;20474;-93
2022/05/14 08:11:52;;;;;;;4.10;3.80;;;;;;;;;;6253610;22;20479;-89
2022/05/14 09:00:15;;;;;;;;;;;;;;;;;;;;;
2022/05/14 10:10:22;;;;;;;6.67;5.50;;;;;;;;;;6117113;23;20469;-93
2022/05/14 10:12:58;;;;;;;6.37;5.60;;;;;;;;;;6104755;23;20390;-92
2022/05/14 10:15:39;;;;;;;8.87;4.97;;;;;;;;;;6098728;23;20454;-89
2022/05/14 10:18:14;;;;;;;5.17;3.40;;;;;;;;;;6104634;23;20378;-90
2022/05/14 10:21:07;;;;;;;8.50;3.60;;;;;;;;;;6111494;23;20383;-90
2022/05/14 10:27:11;;;;;;;5.00;4.50;;;;;;;;;;6109213;23;20437;-92
2022/05/14 10:30:16;;;;;;;7.10;4.60;;;;;;;;;;6105444;23;20400;-92
2022/05/14 10:33:28;;;;;;;5.80;4.30;;;;;;;;;;6100905;23;20382;-90
2022/05/14 10:44:26;;;;;;;7.73;4.87;;;;;;;;;;6128050;22;21100;-93
2022/05/14 10:50:53;;;;;;;7.20;3.90;;;;;;;;;;6271569;22;20490;-89
2022/05/14 10:53:53;;;;;;;5.27;4.77;;;;;;;;;;6288441;22;20379;-93
2022/05/14 10:56:56;;;;;;;4.30;3.90;;;;;;;;;;6290109;22;20736;-89
2022/05/14 11:00:06;;;;;;;7.77;3.77;;;;;;;;;;6291362;22;20510;-92
2022/05/14 11:03:19;;;;;;;3.33;2.93;;;;;;;;;;6288957;22;20385;-95
2022/05/14 13:25:03;;;;;;;8.60;4.63;;;;;;;;;;6270620;22;20452;-90
2022/05/14 14:28:02;;;;;;;6.00;3.50;;;;;;;;;;6103921;23;20836;-91
2022/05/14 15:18:07;;;;;;;5.10;4.50;;;;;;;;;;6161977;22;20484;-92
2022/05/14 15:21:21;;;;;;;12.80;6.10;;;;;;;;;;6166317;23;20568;-94
2022/05/14 15:38:04;;;;;;;6.70;6.10;;;;;;;;;;6156522;22;21338;-90
2022/05/14 17:02:55;;;;;;;12.73;7.97;;;;;;;;;;6149297;22;20497;-91
2022/05/14 17:09:26;;;;;;;9.67;8.87;;;;;;;;;;6165921;22;20502;-93
2022/05/14 17:29:58;;;;;;;;;;;;;;;;;;;;;
2022/05/14 17:32:54;;;;;;;7.70;7.00;;;;;;;;;;6148078;22;20448;-92
2022/05/14 18:18:02;;;;;;;8.87;7.40;;;;;;;;;;6141607;22;20525;-93
2022/05/14 18:21:14;;;;;;;14.93;7.23;;;;;;;;;;6067313;23;20379;-95
2022/05/14 18:32:01;;;;;;;7.17;6.00;;;;;;;;;;6117824;22;20399;-93
2022/05/14 19:18:51;;;;;;;9.53;7.13;;;;;;;;;;6167542;23;20371;-93
2022/05/14 19:29:51;;;;;;;7.00;6.37;;;;;;;;;;6098266;22;20426;-89
2022/05/14 19:32:17;;;;;;;9.57;7.30;;;;;;;;;;6123588;23;20440;-91
2022/05/14 19:35:03;;;;;;;8.67;7.00;;;;;;;;;;6172500;23;20604;-93
2022/05/14 19:38:09;;;;;;;9.83;8.27;;;;;;;;;;6163629;23;21050;-92
2022/05/14 19:41:15;;;;;;;10.27;8.63;;;;;;;;;;6166905;23;20473;-92
2022/05/14 19:44:21;;;;;;;11.30;7.90;;;;;;;;;;6165948;23;20402;-94
2022/05/14 19:47:28;;;;;;;8.60;7.80;;;;;;;;;;6164936;23;20835;-91
2022/05/14 19:50:34;;;;;;;8.63;7.80;;;;;;;;;;6166218;23;20435;-91
2022/05/14 19:53:41;;;;;;;7.70;7.17;;;;;;;;;;6160162;23;20416;-91
2022/05/14 19:56:46;;;;;;;9.90;7.90;;;;;;;;;;6164901;23;20538;-93
2022/05/14 19:59:53;;;;;;;12.73;8.07;;;;;;;;;;6162446;23;20411;-93
2022/05/14 20:02:59;;;;;;;12.93;7.50;;;;;;;;;;6157020;23;20474;-92
2022/05/14 20:06:06;;;;;;;10.13;7.40;;;;;;;;;;6159677;23;20504;-92
2022/05/14 20:09:12;;;;;;;9.40;7.23;;;;;;;;;;6159838;23;20407;-91
2022/05/14 20:12:19;;;;;;;7.37;6.63;;;;;;;;;;6158714;23;20388;-92
2022/05/14 20:15:25;;;;;;;10.23;6.50;;;;;;;;;;6151958;23;20397;-92
2022/05/14 20:43:02;;;;;;;9.93;8.90;;;;;;;;;;6138469;22;20468;-93
2022/05/14 20:46:08;;;;;;;9.10;8.00;;;;;;;;;;6139436;23;20512;-93
2022/05/14 20:49:25;;;;;;;8.27;7.43;;;;;;;;;;6139590;23;20389;-91
2022/05/14 20:52:39;;;;;;;;;;;;;;;;;;;;;
2022/05/14 20:58:58;;;;;;;;;;;;;;;;;;;;;
2022/05/14 21:01:51;;;;;;;8.47;7.67;;;;;;;;;;6134572;23;20395;-91
2022/05/14 21:04:57;;;;;;;8.97;8.03;;;;;;;;;;6124425;23;20420;-92
2022/05/14 21:08:07;;;;;;;9.03;7.20;;;;;;;;;;6120099;23;20405;-92
2022/05/14 21:11:17;;;;;;;19.20;8.97;;;;;;;;;;6125097;23;20396;-92
2022/05/14 21:14:15;;;;;;;28.43;25.43;;;;;;;;;;6119269;23;20481;-92
2022/05/14 21:17:23;;;;;;;14.83;9.80;;;;;;;;;;6122214;23;20446;-90
2022/05/14 21:20:27;;;;;;;9.57;7.70;;;;;;;;;;6121868;23;20509;-91
2022/05/14 21:23:33;;;;;;;10.00;9.20;;;;;;;;;;6122790;23;20810;-91
2022/05/14 21:26:41;;;;;;;10.77;7.87;;;;;;;;;;6123709;23;20471;-90
2022/05/14 21:29:47;;;;;;;7.83;7.13;;;;;;;;;;6125956;23;20705;-92
2022/05/14 21:32:50;;;;;;;9.23;8.33;;;;;;;;;;6126367;23;20380;-92
2022/05/14 21:39:03;;;;;;;9.03;8.20;;;;;;;;;;6118794;23;20450;-90
2022/05/14 21:42:07;;;;;;;13.13;8.60;;;;;;;;;;6138193;23;20838;-91
2022/05/14 21:45:13;;;;;;;9.33;8.33;;;;;;;;;;6148579;23;20785;-90
2022/05/14 21:48:27;;;;;;;8.50;7.90;;;;;;;;;;6147473;23;20384;-92
2022/05/14 21:51:25;;;;;;;12.13;7.27;;;;;;;;;;6148403;23;20404;-92
2022/05/14 21:54:30;;;;;;;11.83;8.70;;;;;;;;;;6148142;23;20417;-91
2022/05/14 21:57:43;;;;;;;13.00;8.63;;;;;;;;;;6148631;23;20384;-91
2022/05/14 22:00:25;;;;;;;12.03;8.80;;;;;;;;;;6150911;23;20387;-92
2022/05/14 22:03:31;;;;;;;11.07;9.97;;;;;;;;;;6150074;23;20396;-91
2022/05/14 22:06:37;;;;;;;8.97;8.13;;;;;;;;;;6151527;23;20475;-91
2022/05/14 22:09:45;;;;;;;10.30;8.67;;;;;;;;;;6148765;23;20815;-92
2022/05/14 22:12:52;;;;;;;8.83;8.10;;;;;;;;;;6152261;23;20470;-92
2022/05/14 22:15:57;;;;;;;9.13;8.40;;;;;;;;;;6152230;23;20441;-91
2022/05/14 22:19:03;;;;;;;10.63;7.80;;;;;;;;;;6151070;23;20396;-93
2022/05/14 22:22:11;;;;;;;9.33;8.40;;;;;;;;;;6151231;23;20388;-91
2022/05/14 22:25:15;;;;;;;9.07;8.20;;;;;;;;;;6150587;23;20455;-91
2022/05/14 22:28:24;;;;;;;8.80;7.93;;;;;;;;;;6151621;23;21005;-91
2022/05/14 22:31:30;;;;;;;8.37;7.57;;;;;;;;;;6154898;23;20391;-92
2022/05/14 22:34:21;;;;;;;8.37;7.70;;;;;;;;;;6155540;23;20387;-92
2022/05/14 22:36:47;;;;;;;10.10;9.13;;;;;;;;;;6153397;23;20457;-91
2022/05/14 22:40:55;;;;;;;9.90;8.77;;;;;;;;;;6153337;23;20380;-89
2022/05/14 22:42:39;;;;;;;9.97;9.03;;;;;;;;;;6156466;23;20514;-90
2022/05/14 22:45:47;;;;;;;9.47;8.57;;;;;;;;;;6165639;23;20459;-91
2022/05/14 22:48:51;;;;;;;13.90;9.50;;;;;;;;;;6171355;23;20435;-91
2022/05/14 22:51:56;;;;;;;11.17;9.47;;;;;;;;;;6166496;23;20455;-91
2022/05/14 22:55:02;;;;;;;11.87;8.63;;;;;;;;;;6159030;23;20380;-91
2022/05/14 22:58:11;;;;;;;9.87;9.00;;;;;;;;;;6172606;22;20410;-94
2022/05/14 23:01:14;;;;;;;12.17;10.57;;;;;;;;;;6162345;23;20392;-92
2022/05/14 23:04:20;;;;;;;10.87;9.80;;;;;;;;;;6162239;23;20379;-94
2022/05/14 23:07:36;;;;;;;;;;;;;;;;;;;;;
2022/05/14 23:10:35;;;;;;;10.00;9.20;;;;;;;;;;6156375;23;20380;-94
2022/05/14 23:13:38;;;;;;;10.37;9.60;;;;;;;;;;6153945;23;20392;-94
2022/05/14 23:16:49;;;;;;;16.63;11.00;;;;;;;;;;6155539;23;20422;-94
2022/05/14 23:19:52;;;;;;;9.23;8.63;;;;;;;;;;6153595;23;20490;-95
2022/05/14 23:23:11;;;;;;;9.77;9.07;;;;;;;;;;6159452;23;20387;-96
2022/05/14 23:26:22;;;;;;;10.57;8.90;;;;;;;;;;6174264;23;20436;-94
2022/05/14 23:29:22;;;;;;;10.33;9.30;;;;;;;;;;6154498;23;20391;-95
2022/05/14 23:32:37;;;;;;;10.17;9.30;;;;;;;;;;6155400;23;20447;-92
2022/05/14 23:36:23;;;;;;;9.30;8.50;;;;;;;;;;6154944;23;20389;-94
2022/05/14 23:39:10;;;;;;;10.13;9.10;;;;;;;;;;6154971;23;20392;-94
2022/05/14 23:41:53;;;;;;;12.00;9.17;;;;;;;;;;6156263;23;20439;-95
2022/05/14 23:44:58;;;;;;;12.30;9.97;;;;;;;;;;6153414;23;20430;-95
2022/05/14 23:48:04;;;;;;;10.63;9.63;;;;;;;;;;6154976;23;20396;-95
2022/05/14 23:51:11;;;;;;;12.50;11.20;;;;;;;;;;6156353;23;20451;-94
2022/05/14 23:54:19;;;;;;;10.60;9.80;;;;;;;;;;6158850;23;20389;-95
2022/05/14 23:57:33;;;;;;;11.20;10.10;;;;;;;;;;6157937;23;20392;-95
